Time;durP1;ratioP1;P1;durP2;ratioP2;P2;SDS_P1;SDS_P2;PMS_P1;PMS_P2;Temp;Humidity;BMP_temperature;BMP_pressure;BME280_temperature;BME280_humidity;BME280_pressure;Samples;Min_cycle;Max_cycle;Signal;HPM_P1;HPM_P2
2022/02/28 00:00:54;;;;;;;32.47;17.65;;;;;;;6.44;54.60;103364.75;4954861;28;97099;-76
2022/02/28 00:03:20;;;;;;;35.78;17.30;;;;;;;6.23;54.73;103364.28;4951002;28;96948;-74
2022/02/28 00:05:47;;;;;;;29.60;15.32;;;;;;;6.22;54.68;103358.13;4959402;28;99507;-75
2022/02/28 00:08:14;;;;;;;31.15;15.45;;;;;;;5.58;55.62;103364.31;4955440;28;98174;-75
2022/02/28 00:10:41;;;;;;;26.92;13.77;;;;;;;5.65;56.60;103365.38;4955433;28;97630;-75
2022/02/28 00:13:07;;;;;;;28.38;15.73;;;;;;;5.88;55.16;103360.78;4953288;28;96958;-76
2022/02/28 00:15:35;;;;;;;33.42;16.42;;;;;;;5.55;55.62;103355.50;4957526;28;99084;-76
2022/02/28 00:18:01;;;;;;;31.00;16.83;;;;;;;5.40;56.99;103355.09;4953579;28;98768;-77
2022/02/28 00:20:28;;;;;;;31.77;16.83;;;;;;;5.70;55.93;103353.28;4954638;28;97214;-76
2022/02/28 00:22:54;;;;;;;31.75;16.98;;;;;;;6.03;55.39;103352.41;4956762;28;97055;-77
2022/02/28 00:25:21;;;;;;;32.85;17.17;;;;;;;6.13;54.86;103354.38;4958993;28;96886;-76
2022/02/28 00:27:48;;;;;;;30.67;16.52;;;;;;;5.91;55.39;103348.59;4951639;28;97865;-75
2022/02/28 00:30:14;;;;;;;35.53;18.05;;;;;;;5.70;56.42;103358.53;4960902;28;96771;-76
2022/02/28 00:32:42;;;;;;;33.95;17.48;;;;;;;6.15;55.36;103355.31;4951036;28;96948;-76
2022/02/28 00:35:10;;;;;;;30.05;16.55;;;;;;;6.27;54.65;103355.59;4955089;28;99716;-76
2022/02/28 00:37:37;;;;;;;34.42;17.98;;;;;;;5.87;55.50;103364.19;4953590;28;98899;-76
2022/02/28 00:40:05;;;;;;;30.63;16.50;;;;;;;5.55;56.06;103355.50;4953928;28;96776;-76
2022/02/28 00:42:31;;;;;;;32.83;16.80;;;;;;;5.68;56.53;103356.72;4950590;28;97224;-76
2022/02/28 00:44:57;;;;;;;35.95;17.58;;;;;;;5.82;55.64;103369.34;4952274;28;99779;-77
2022/02/28 00:47:24;;;;;;;33.38;16.98;;;;;;;5.78;56.18;103371.81;4957264;28;97639;-75
2022/02/28 00:49:51;;;;;;;36.00;18.65;;;;;;;5.44;57.07;103362.22;4955820;28;96867;-75
2022/02/28 00:52:18;;;;;;;35.50;19.10;;;;;;;5.58;56.90;103363.44;4950027;28;97472;-74
2022/02/28 00:54:44;;;;;;;37.97;19.08;;;;;;;5.74;56.82;103363.00;4954652;28;99252;-76
2022/02/28 00:57:10;;;;;;;35.50;18.42;;;;;;;5.82;55.87;103357.97;4955353;28;98320;-76
2022/02/28 00:59:37;;;;;;;39.05;18.52;;;;;;;5.96;55.64;103360.13;4955156;28;96839;-75
2022/02/28 01:02:04;;;;;;;35.88;17.45;;;;;;;5.94;55.65;103351.31;4959256;28;96793;-74
2022/02/28 01:04:30;;;;;;;35.50;17.48;;;;;;;5.52;56.62;103352.78;4963304;28;96981;-76
2022/02/28 01:06:58;;;;;;;35.50;17.58;;;;;;;5.72;56.57;103348.94;4964275;28;97858;-76
2022/02/28 01:09:24;;;;;;;35.95;17.67;;;;;;;6.27;54.85;103350.34;4966347;28;96887;-76
2022/02/28 01:11:51;;;;;;;35.65;17.52;;;;;;;6.27;54.64;103351.25;4961831;28;98449;-75
2022/02/28 01:14:17;;;;;;;34.38;17.60;;;;;;;6.30;54.45;103347.81;4963528;28;99257;-74
2022/02/28 01:16:43;;;;;;;38.97;17.83;;;;;;;6.14;54.47;103341.28;4958073;28;99128;-74
2022/02/28 01:19:10;;;;;;;32.15;17.48;;;;;;;6.17;54.23;103353.63;4951137;28;96936;-75
2022/02/28 01:21:36;;;;;;;31.33;16.45;;;;;;;5.85;54.76;103345.78;4953336;28;97082;-75
2022/02/28 01:24:05;;;;;;;32.38;17.02;;;;;;;5.65;55.59;103347.00;4959759;28;99320;-76
2022/02/28 01:26:31;;;;;;;34.58;16.77;;;;;;;5.26;57.46;103341.59;4950070;28;99022;-76
2022/02/28 01:28:57;;;;;;;38.00;17.42;;;;;;;5.57;56.03;103340.72;4954102;28;97095;-76
2022/02/28 01:31:25;;;;;;;34.70;17.38;;;;;;;5.68;55.99;103343.59;4951428;28;97429;-76
2022/02/28 01:33:52;;;;;;;36.63;18.60;;;;;;;5.88;55.58;103345.03;4963847;28;98957;-76
2022/02/28 01:36:21;;;;;;;34.65;17.90;;;;;;;5.92;54.99;103341.63;4951263;28;99279;-76
2022/02/28 01:38:47;;;;;;;34.95;18.13;;;;;;;5.61;55.76;103340.81;4956783;28;96884;-76
2022/02/28 01:41:15;;;;;;;35.63;17.85;;;;;;;5.36;57.09;103342.75;4956041;28;97359;-76
2022/02/28 01:43:41;;;;;;;36.72;18.65;;;;;;;5.78;55.54;103340.34;4947719;28;99142;-76
2022/02/28 01:46:08;;;;;;;37.33;19.58;;;;;;;6.09;54.75;103339.41;4954183;28;99665;-76
2022/02/28 01:48:34;;;;;;;43.80;20.23;;;;;;;6.34;54.62;103329.53;4952973;28;96999;-76
2022/02/28 01:51:03;;;;;;;37.88;18.48;;;;;;;6.15;54.62;103336.94;4956490;28;99184;-76
2022/02/28 01:53:29;;;;;;;40.47;19.40;;;;;;;6.23;53.90;103322.25;4951608;28;100395;-75
2022/02/28 01:55:56;;;;;;;40.33;18.90;;;;;;;6.29;54.19;103323.28;4955904;28;99406;-75
2022/02/28 01:58:23;;;;;;;40.05;19.52;;;;;;;5.89;54.72;103331.94;4952615;28;97123;-76
2022/02/28 02:00:50;;;;;;;42.92;20.58;;;;;;;6.25;54.29;103337.19;4951114;28;97449;-75
2022/02/28 02:03:16;;;;;;;45.65;20.90;;;;;;;6.12;54.54;103328.97;4953184;28;99483;-76
2022/02/28 02:05:43;;;;;;;41.63;19.77;;;;;;;5.70;56.40;103334.94;4949164;28;99033;-76
2022/02/28 02:08:10;;;;;;;45.55;21.52;;;;;;;6.26;54.91;103332.81;4960729;28;97544;-75
2022/02/28 02:10:36;;;;;;;42.03;20.80;;;;;;;6.26;54.45;103332.81;4959430;28;96787;-75
2022/02/28 02:13:03;;;;;;;42.72;20.75;;;;;;;6.40;54.29;103331.41;4961615;28;96802;-76
2022/02/28 02:15:31;;;;;;;45.40;20.20;;;;;;;6.25;55.13;103325.78;4957760;28;99361;-75
2022/02/28 02:20:37;;;;;;;47.45;19.23;;;;;;;5.87;55.64;103323.13;4962984;28;99361;-73
2022/02/28 02:23:09;;;;;;;39.40;18.27;;;;;;;6.24;54.78;103327.53;4970762;28;98157;-73
2022/02/28 02:25:36;;;;;;;38.38;18.60;;;;;;;6.24;54.20;103324.00;4973338;28;99515;-74
2022/02/28 02:28:05;;;;;;;40.97;18.42;;;;;;;6.55;53.90;103321.25;4977261;28;97350;-73
2022/02/28 02:30:32;;;;;;;38.65;18.25;;;;;;;6.22;54.79;103329.25;4981846;28;96984;-73
2022/02/28 02:32:59;;;;;;;44.17;19.17;;;;;;;5.82;55.64;103324.75;4980729;28;98902;-73
2022/02/28 02:35:27;;;;;;;42.90;18.88;;;;;;;6.20;54.67;103311.66;4984329;28;98878;-72
2022/02/28 02:37:55;;;;;;;39.47;18.77;;;;;;;5.90;55.10;103320.59;4976231;28;96813;-73
2022/02/28 02:40:22;;;;;;;35.67;16.40;;;;;;;6.23;54.16;103317.00;4977494;28;97127;-73
2022/02/28 02:42:50;;;;;;;38.63;17.52;;;;;;;6.36;53.58;103308.56;4980866;28;101526;-74
2022/02/28 02:45:17;;;;;;;39.80;18.88;;;;;;;6.34;53.26;103316.38;4981882;28;98293;-75
2022/02/28 02:47:44;;;;;;;36.13;17.13;;;;;;;6.19;53.68;103316.03;4981424;28;98726;-73
2022/02/28 02:50:11;;;;;;;37.53;17.30;;;;;;;6.12;53.62;103310.59;4988503;28;96982;-73
2022/02/28 02:52:39;;;;;;;37.92;17.75;;;;;;;6.03;53.37;103310.41;4985847;28;98874;-74
2022/02/28 02:55:08;;;;;;;39.70;19.77;;;;;;;5.92;53.17;103305.75;4979441;28;98965;-73
2022/02/28 02:57:35;;;;;;;41.88;18.83;;;;;;;5.88;53.21;103311.81;4984779;28;97579;-73
2022/02/28 03:00:05;;;;;;;43.78;19.63;;;;;;;5.89;53.42;103310.94;4979350;28;97025;-73
2022/02/28 03:02:32;;;;;;;42.00;19.08;;;;;;;6.10;53.21;103300.09;4986193;28;101430;-74
2022/02/28 03:04:59;;;;;;;40.67;19.40;;;;;;;5.89;53.46;103308.31;4986294;28;99309;-73
2022/02/28 03:07:25;;;;;;;44.40;20.63;;;;;;;6.14;52.77;103288.78;4986156;28;97209;-73
2022/02/28 03:09:52;;;;;;;43.35;20.33;;;;;;;6.13;52.73;103294.00;4984317;28;98614;-72
2022/02/28 03:12:21;;;;;;;43.38;19.73;;;;;;;5.80;53.00;103286.19;4976243;28;99565;-73
2022/02/28 03:14:47;;;;;;;40.83;19.80;;;;;;;5.98;52.74;103279.66;4978636;28;99115;-73
2022/02/28 03:17:14;;;;;;;47.33;20.67;;;;;;;5.67;53.68;103274.50;4981865;28;96723;-73
2022/02/28 03:19:41;;;;;;;41.85;18.83;;;;;;;6.04;53.12;103263.16;4976713;28;96915;-74
2022/02/28 03:22:07;;;;;;;43.05;19.25;;;;;;;6.15;52.86;103260.81;4976919;28;99275;-73
2022/02/28 03:24:33;;;;;;;43.60;20.13;;;;;;;6.19;51.95;103255.66;4977574;28;99371;-73
2022/02/28 03:27:00;;;;;;;42.22;20.15;;;;;;;6.15;52.60;103252.94;4983907;28;96915;-73
2022/02/28 03:29:28;;;;;;;42.95;19.67;;;;;;;5.97;52.63;103259.50;4981569;28;96834;-75
2022/02/28 03:31:54;;;;;;;40.08;18.75;;;;;;;6.07;52.50;103254.47;4986523;28;98870;-74
2022/02/28 03:34:23;;;;;;;41.88;18.70;;;;;;;5.97;52.49;103261.28;4985374;28;97788;-73
2022/02/28 03:36:50;;;;;;;42.25;19.50;;;;;;;6.02;52.42;103254.38;4983238;28;97648;-73
2022/02/28 03:39:17;;;;;;;40.33;17.95;;;;;;;6.19;52.13;103239.00;4981786;28;97672;-73
2022/02/28 03:41:43;;;;;;;41.08;20.02;;;;;;;6.30;51.94;103245.41;4979526;28;98869;-73
2022/02/28 03:44:10;;;;;;;41.47;18.75;;;;;;;6.16;52.07;103249.44;4982477;28;99274;-72
2022/02/28 03:46:38;;;;;;;42.78;19.75;;;;;;;5.94;52.25;103251.59;4977201;28;96795;-73
2022/02/28 03:49:04;;;;;;;42.17;17.90;;;;;;;5.62;53.62;103257.75;4979534;28;96888;-73
2022/02/28 03:51:31;;;;;;;39.35;19.17;;;;;;;5.85;53.19;103256.56;4979685;28;99608;-73
2022/02/28 03:53:57;;;;;;;45.80;19.92;;;;;;;5.87;52.47;103249.66;4975010;28;101841;-73
2022/02/28 03:56:24;;;;;;;46.28;19.85;;;;;;;5.70;53.09;103252.72;4981603;28;96844;-73
2022/02/28 03:58:50;;;;;;;44.55;20.02;;;;;;;6.00;52.47;103253.47;4977944;28;96918;-73
2022/02/28 04:01:17;;;;;;;48.72;19.45;;;;;;;5.69;52.90;103249.19;4975509;28;97339;-73
2022/02/28 04:03:45;;;;;;;42.40;19.17;;;;;;;5.98;52.53;103250.78;4982523;28;101206;-73
2022/02/28 04:06:11;;;;;;;49.53;20.38;;;;;;;5.56;53.04;103258.50;4987537;28;96806;-73
2022/02/28 04:08:38;;;;;;;53.65;20.73;;;;;;;5.73;53.33;103261.53;4981392;28;96914;-73
2022/02/28 04:11:04;;;;;;;55.03;20.08;;;;;;;5.46;53.45;103260.84;4980381;28;99705;-75
2022/02/28 04:13:31;;;;;;;52.53;21.35;;;;;;;5.39;52.99;103272.00;4979422;28;97639;-73
2022/02/28 04:15:57;;;;;;;48.78;20.85;;;;;;;5.48;52.89;103265.28;4976316;28;96837;-74
2022/02/28 04:18:24;;;;;;;52.67;21.52;;;;;;;5.60;52.78;103259.44;4980066;28;97056;-72
2022/02/28 04:20:52;;;;;;;51.22;21.20;;;;;;;5.85;52.74;103261.81;4976179;28;96615;-74
2022/02/28 04:23:19;;;;;;;48.50;20.67;;;;;;;6.07;51.99;103259.72;4982652;28;99298;-73
2022/02/28 04:25:46;;;;;;;48.55;19.80;;;;;;;6.08;51.76;103257.16;4983673;28;98667;-71
2022/02/28 04:28:12;;;;;;;47.47;20.80;;;;;;;6.26;51.56;103259.28;4979371;28;96824;-72
2022/02/28 04:30:39;;;;;;;52.65;22.10;;;;;;;6.32;50.86;103256.81;4978452;28;97907;-73
2022/02/28 04:33:05;;;;;;;55.33;21.83;;;;;;;6.27;51.25;103248.81;4977031;28;99458;-72
2022/02/28 04:35:32;;;;;;;54.65;22.42;;;;;;;6.43;50.89;103252.69;4978440;28;96724;-73
2022/02/28 04:38:01;;;;;;;52.92;20.35;;;;;;;6.15;51.44;103245.06;4980443;28;96860;-73
2022/02/28 04:40:28;;;;;;;47.55;20.67;;;;;;;6.21;51.17;103242.56;4982131;28;98972;-73
2022/02/28 04:42:54;;;;;;;53.38;22.17;;;;;;;6.12;51.20;103245.84;4981422;28;98888;-74
2022/02/28 04:45:21;;;;;;;50.42;22.45;;;;;;;6.22;50.98;103241.72;4980164;28;96749;-74
2022/02/28 04:47:47;;;;;;;52.85;22.27;;;;;;;6.17;51.04;103244.22;4979711;28;97143;-74
2022/02/28 04:50:14;;;;;;;52.85;22.77;;;;;;;6.14;51.04;103245.91;4977817;28;98947;-74
2022/02/28 04:52:40;;;;;;;49.80;20.83;;;;;;;6.01;51.10;103257.84;4984311;28;99226;-75
2022/02/28 04:55:08;;;;;;;46.90;21.35;;;;;;;6.28;50.38;103260.22;4988662;28;96810;-75
2022/02/28 04:57:38;;;;;;;50.67;20.55;;;;;;;5.93;51.04;103260.31;4978478;28;97182;-74
2022/02/28 05:00:06;;;;;;;56.38;22.27;;;;;;;6.10;50.75;103263.34;4980354;28;97843;-74
2022/02/28 05:02:33;;;;;;;52.03;22.13;;;;;;;6.19;50.74;103257.38;4980782;28;99461;-73
2022/02/28 05:05:00;;;;;;;52.53;21.90;;;;;;;5.94;50.89;103267.31;4981958;28;97130;-73
2022/02/28 05:07:27;;;;;;;50.33;22.23;;;;;;;6.19;50.62;103260.00;4983742;28;96949;-74
2022/02/28 05:09:55;;;;;;;47.72;20.27;;;;;;;5.83;51.38;103263.53;4977436;28;99552;-74
2022/02/28 05:12:25;;;;;;;44.55;19.05;;;;;;;5.76;51.98;103260.72;4973873;28;98852;-73
2022/02/28 05:14:52;;;;;;;49.42;22.55;;;;;;;5.86;51.79;103267.94;4977554;28;96959;-75
2022/02/28 05:17:19;;;;;;;47.17;21.17;;;;;;;5.92;51.34;103274.28;4983958;28;97678;-74
2022/02/28 05:19:48;;;;;;;50.15;20.95;;;;;;;6.10;51.00;103267.69;4977101;28;99405;-73
2022/02/28 05:22:15;;;;;;;67.10;22.75;;;;;;;6.41;50.62;103267.50;4978194;28;98748;-77
2022/02/28 05:24:43;;;;;;;49.25;21.42;;;;;;;6.28;50.42;103266.38;4978300;28;97865;-75
2022/02/28 05:27:09;;;;;;;61.28;22.65;;;;;;;6.14;50.88;103254.66;4979103;28;96933;-75
2022/02/28 05:29:39;;;;;;;50.78;22.35;;;;;;;5.99;51.35;103265.69;4980104;28;99808;-74
2022/02/28 05:32:07;;;;;;;60.00;23.02;;;;;;;6.20;50.87;103260.03;4985282;28;99266;-74
2022/02/28 05:34:33;;;;;;;55.08;22.10;;;;;;;6.47;50.13;103270.28;4977547;28;96731;-76
2022/02/28 05:37:00;;;;;;;50.75;22.23;;;;;;;6.35;50.52;103264.75;4981931;28;97073;-76
2022/02/28 05:39:30;;;;;;;49.47;22.38;;;;;;;6.58;50.43;103271.38;4979686;28;101158;-75
2022/02/28 05:41:56;;;;;;;52.97;22.80;;;;;;;6.58;49.83;103278.38;4975293;28;98964;-74
2022/02/28 05:44:23;;;;;;;58.25;25.00;;;;;;;6.17;50.40;103280.13;4983316;28;97428;-75
2022/02/28 05:46:51;;;;;;;57.05;22.80;;;;;;;6.49;50.12;103273.81;4978639;28;96752;-75
2022/02/28 05:49:17;;;;;;;52.83;23.83;;;;;;;6.26;50.24;103277.69;4976334;28;98860;-75
2022/02/28 05:51:44;;;;;;;54.63;24.58;;;;;;;6.20;50.59;103267.94;4985454;28;98899;-74
2022/02/28 05:54:10;;;;;;;53.30;22.70;;;;;;;6.05;50.66;103278.06;4979768;28;97737;-73
2022/02/28 05:56:40;;;;;;;54.08;23.00;;;;;;;6.33;50.15;103279.59;4986318;28;96901;-73
2022/02/28 05:59:06;;;;;;;49.05;21.92;;;;;;;6.13;50.87;103283.50;4982349;28;99501;-73
2022/02/28 06:01:33;;;;;;;51.95;22.05;;;;;;;5.84;51.35;103286.28;4978682;28;97559;-74
2022/02/28 06:04:03;;;;;;;59.65;23.52;;;;;;;6.02;51.24;103282.38;4986919;28;96865;-73
2022/02/28 06:06:30;;;;;;;51.20;22.88;;;;;;;6.07;50.94;103284.25;4983844;28;96840;-75
2022/02/28 06:08:57;;;;;;;50.17;22.17;;;;;;;6.18;50.52;103282.75;4984759;28;101132;-73
2022/02/28 06:11:25;;;;;;;50.15;22.17;;;;;;;6.12;51.17;103284.34;4978658;28;99008;-73
2022/02/28 06:13:52;;;;;;;52.42;23.70;;;;;;;6.24;50.59;103292.50;4983718;28;97880;-70
2022/02/28 06:16:24;;;;;;;55.33;23.77;;;;;;;6.47;49.66;103288.66;4984723;28;98736;-72
2022/02/28 06:19:01;;;;;;;57.78;22.55;;;;;;;6.58;49.37;103296.75;4991305;28;97748;-71
2022/02/28 06:21:30;;;;;;;59.97;24.02;;;;;;;6.37;50.10;103305.94;4995004;28;97140;-74
2022/02/28 06:23:56;;;;;;;51.25;21.83;;;;;;;6.20;49.90;103290.66;4997643;28;97022;-72
2022/02/28 06:26:23;;;;;;;51.15;21.95;;;;;;;6.44;49.45;103285.06;4984643;28;98421;-73
2022/02/28 06:28:54;;;;;;;54.40;23.08;;;;;;;6.33;50.03;103282.22;4983553;28;100389;-73
2022/02/28 06:31:21;;;;;;;81.70;23.70;;;;;;;6.59;49.41;103280.16;4983294;28;97687;-73
2022/02/28 06:33:48;;;;;;;55.05;23.42;;;;;;;6.71;48.79;103281.28;4984252;28;96845;-72
2022/02/28 06:36:14;;;;;;;55.53;24.65;;;;;;;6.61;48.93;103276.72;4981953;28;99137;-73
2022/02/28 06:38:49;;;;;;;56.58;24.15;;;;;;;6.43;49.60;103278.06;4984183;28;99124;-73
2022/02/28 06:41:18;;;;;;;56.15;24.40;;;;;;;6.10;50.32;103279.09;4975861;28;98712;-74
2022/02/28 06:43:44;;;;;;;62.42;24.67;;;;;;;6.67;49.54;103284.72;4988444;28;96785;-73
2022/02/28 06:46:11;;;;;;;63.25;26.23;;;;;;;6.47;49.47;103286.03;4980246;28;96924;-72
2022/02/28 06:48:38;;;;;;;66.70;26.67;;;;;;;6.74;49.02;103296.25;4978905;28;98938;-73
2022/02/28 06:51:04;;;;;;;60.30;26.25;;;;;;;6.69;49.18;103297.88;4991149;28;99328;-73
2022/02/28 06:53:31;;;;;;;55.83;25.67;;;;;;;6.44;49.30;103306.97;4982013;28;98052;-72
2022/02/28 06:56:07;;;;;;;62.00;25.50;;;;;;;6.38;50.36;103312.06;4980114;28;96955;-73
2022/02/28 06:58:42;;;;;;;61.72;26.90;;;;;;;6.40;49.80;103315.63;4976174;28;99244;-73
2022/02/28 07:01:11;;;;;;;62.13;26.02;;;;;;;6.71;49.05;103315.44;4978812;28;101476;-72
2022/02/28 07:03:38;;;;;;;60.97;26.40;;;;;;;6.93;48.82;103314.16;4978647;28;98234;-73
2022/02/28 07:06:05;;;;;;;60.10;26.80;;;;;;;6.94;48.61;103318.56;4981494;28;97366;-72
2022/02/28 07:08:31;;;;;;;67.28;25.65;;;;;;;7.20;47.97;103329.59;4981101;28;99068;-73
2022/02/28 07:10:59;;;;;;;60.67;24.55;;;;;;;6.86;48.59;103322.75;4979694;28;98130;-72
2022/02/28 07:13:26;;;;;;;59.40;26.92;;;;;;;7.02;48.19;103329.22;4980082;28;97163;-72
2022/02/28 07:15:54;;;;;;;55.25;23.85;;;;;;;7.13;47.86;103323.31;4985498;28;99119;-72
2022/02/28 07:18:20;;;;;;;64.40;25.20;;;;;;;7.15;48.07;103320.72;4988719;28;99037;-73
2022/02/28 07:20:47;;;;;;;51.28;22.27;;;;;;;6.96;48.23;103324.72;4980128;28;98962;-73
2022/02/28 07:23:18;;;;;;;64.35;24.52;;;;;;;6.79;48.60;103323.50;4988898;28;96754;-74
2022/02/28 07:25:44;;;;;;;56.20;24.05;;;;;;;7.07;48.25;103330.19;4985031;28;96807;-73
2022/02/28 07:28:12;;;;;;;56.65;24.95;;;;;;;7.06;47.98;103334.56;4984677;28;98855;-74
2022/02/28 07:30:39;;;;;;;55.60;24.70;;;;;;;6.98;48.41;103332.63;4977119;28;98893;-76
2022/02/28 07:33:05;;;;;;;56.17;24.30;;;;;;;6.94;48.79;103336.97;4983561;28;96776;-76
2022/02/28 07:35:32;;;;;;;53.28;23.25;;;;;;;7.07;48.64;103340.72;4978862;28;97016;-75
2022/02/28 07:37:59;;;;;;;56.67;24.35;;;;;;;7.18;48.12;103345.31;4979736;28;100262;-78
2022/02/28 07:40:26;;;;;;;54.30;21.77;;;;;;;7.01;48.37;103345.84;4979691;28;98332;-76
2022/02/28 07:42:56;;;;;;;55.13;23.65;;;;;;;7.01;48.66;103344.13;4980148;28;98002;-79
2022/02/28 07:45:24;;;;;;;52.30;21.58;;;;;;;7.08;48.36;103347.75;4988931;28;97976;-76
2022/02/28 07:47:50;;;;;;;51.40;22.08;;;;;;;7.19;48.03;103344.47;4984209;28;98272;-75
2022/02/28 07:50:20;;;;;;;46.83;22.23;;;;;;;6.67;48.73;103342.53;4980558;28;99298;-76
2022/02/28 07:52:47;;;;;;;59.88;22.35;;;;;;;6.95;48.14;103349.25;4972365;28;96945;-77
2022/02/28 07:55:15;;;;;;;55.80;21.15;;;;;;;6.54;49.14;103350.97;4977887;28;98656;-76
2022/02/28 07:57:42;;;;;;;49.92;20.05;;;;;;;6.83;50.82;103358.63;4973575;28;100334;-77
2022/02/28 08:00:21;;;;;;;50.63;21.00;;;;;;;7.07;48.63;103360.00;4981204;28;98092;-77
2022/02/28 08:02:55;;;;;;;63.25;21.10;;;;;;;6.77;48.68;103368.13;4982154;28;97229;-77
2022/02/28 08:05:21;;;;;;;49.00;21.88;;;;;;;7.20;48.29;103356.78;4980575;28;97100;-76
2022/02/28 08:07:48;;;;;;;51.85;21.30;;;;;;;7.49;46.99;103364.31;4978758;28;97787;-75
2022/02/28 08:10:14;;;;;;;45.40;21.38;;;;;;;7.21;47.77;103368.19;4973905;28;97687;-76
2022/02/28 08:12:41;;;;;;;46.58;21.65;;;;;;;7.24;47.47;103381.38;4975292;28;96866;-77
2022/02/28 08:15:09;;;;;;;42.22;20.08;;;;;;;6.91;48.25;103381.56;4981848;28;96904;-77
2022/02/28 08:17:35;;;;;;;47.78;21.40;;;;;;;6.86;48.68;103379.69;4979353;28;98152;-76
2022/02/28 08:20:04;;;;;;;48.70;21.00;;;;;;;7.13;47.89;103386.44;5005785;22;101041;-76
2022/02/28 08:22:31;;;;;;;46.38;21.70;;;;;;;7.46;47.28;103378.31;4999701;28;96817;-77
2022/02/28 08:24:58;;;;;;;48.95;20.83;;;;;;;7.83;46.49;103377.22;4994210;28;97013;-76
2022/02/28 08:27:25;;;;;;;45.75;21.15;;;;;;;7.96;46.07;103383.59;4995273;28;99873;-76
2022/02/28 08:29:51;;;;;;;45.88;19.75;;;;;;;7.48;46.54;103384.47;4987301;28;99595;-77
2022/02/28 08:32:17;;;;;;;46.05;21.30;;;;;;;7.08;47.91;103381.94;4983487;28;96768;-78
2022/02/28 08:34:44;;;;;;;47.75;21.35;;;;;;;7.74;46.25;103381.47;4980110;28;97075;-77
2022/02/28 08:37:12;;;;;;;46.35;20.60;;;;;;;7.58;46.68;103367.13;4978063;28;99178;-77
2022/02/28 08:39:38;;;;;;;46.72;19.92;;;;;;;7.82;45.98;103364.03;4978586;28;99387;-76
2022/02/28 08:42:06;;;;;;;40.75;18.73;;;;;;;7.40;46.51;103364.16;4978100;28;98464;-75
2022/02/28 08:44:32;;;;;;;43.13;19.55;;;;;;;7.32;46.94;103366.63;4977358;28;96861;-76
2022/02/28 08:46:59;;;;;;;44.20;19.42;;;;;;;6.98;47.88;103364.19;4974853;28;98833;-76
2022/02/28 08:49:25;;;;;;;44.45;19.27;;;;;;;7.12;47.85;103368.00;4981860;28;99263;-78
2022/02/28 08:51:54;;;;;;;53.65;19.73;;;;;;;7.29;47.37;103366.56;4979116;28;98955;-75
2022/02/28 08:54:22;;;;;;;40.95;19.45;;;;;;;6.83;47.76;103366.50;4975844;28;97132;-76
2022/02/28 08:56:49;;;;;;;43.25;20.17;;;;;;;6.14;49.47;103375.44;4976158;28;99242;-76
2022/02/28 08:59:15;;;;;;;48.40;20.88;;;;;;;7.05;48.13;103377.50;4973117;28;99114;-76
2022/02/28 09:01:42;;;;;;;44.33;19.67;;;;;;;6.76;48.59;103368.97;4975425;28;96965;-76
2022/02/28 09:04:08;;;;;;;42.67;19.80;;;;;;;7.34;47.61;103374.56;4968465;28;97747;-76
2022/02/28 09:06:34;;;;;;;42.80;19.38;;;;;;;7.25;47.76;103371.75;4981408;28;99165;-75
2022/02/28 09:09:00;;;;;;;44.70;20.42;;;;;;;7.36;47.28;103376.34;4980601;28;99025;-75
2022/02/28 09:11:28;;;;;;;42.47;19.73;;;;;;;7.17;47.08;103372.47;4982867;28;96738;-76
2022/02/28 09:13:55;;;;;;;45.58;20.90;;;;;;;7.40;46.37;103362.41;4978997;28;97230;-76
2022/02/28 09:16:22;;;;;;;43.10;21.13;;;;;;;6.82;47.99;103367.38;4976294;28;99885;-76
2022/02/28 09:18:49;;;;;;;48.90;21.65;;;;;;;7.19;47.35;103365.50;4978933;28;98860;-76
2022/02/28 09:21:15;;;;;;;46.03;22.92;;;;;;;7.75;46.12;103362.16;4978963;28;96704;-76
2022/02/28 09:23:42;;;;;;;41.58;21.02;;;;;;;8.09;45.16;103367.13;4984560;28;99194;-75
2022/02/28 09:26:08;;;;;;;43.53;21.00;;;;;;;8.71;43.95;103367.25;4984818;28;99206;-76
2022/02/28 09:28:36;;;;;;;49.90;22.02;;;;;;;8.66;44.23;103374.22;4976938;28;99028;-77
2022/02/28 09:31:03;;;;;;;44.40;21.20;;;;;;;8.51;43.92;103373.97;4982871;28;98470;-77
2022/02/28 09:33:29;;;;;;;40.83;20.52;;;;;;;8.64;43.40;103375.94;4991886;28;97237;-77
2022/02/28 09:35:55;;;;;;;44.28;22.05;;;;;;;8.52;43.86;103370.47;4982000;28;99141;-75
2022/02/28 09:38:23;;;;;;;42.22;20.73;;;;;;;8.05;44.31;103375.84;4985251;28;98809;-75
2022/02/28 09:40:50;;;;;;;44.60;21.30;;;;;;;8.08;44.52;103381.16;4984251;28;97197;-75
2022/02/28 09:43:17;;;;;;;42.25;21.33;;;;;;;7.93;45.22;103375.66;4981905;28;96790;-77
2022/02/28 09:45:46;;;;;;;45.78;22.20;;;;;;;8.25;44.46;103387.59;4983924;28;97934;-76
2022/02/28 09:48:14;;;;;;;47.38;21.88;;;;;;;8.84;43.04;103374.44;4988933;28;99252;-75
2022/02/28 09:50:41;;;;;;;42.67;21.70;;;;;;;8.37;43.64;103384.31;4978371;28;98628;-75
2022/02/28 09:53:07;;;;;;;42.70;21.25;;;;;;;8.88;43.45;103381.53;4979331;28;96843;-76
2022/02/28 09:55:33;;;;;;;43.45;21.45;;;;;;;9.08;42.60;103384.41;4976171;28;99424;-75
2022/02/28 09:58:00;;;;;;;48.50;21.92;;;;;;;8.17;44.50;103385.69;4988386;28;98145;-75
2022/02/28 10:00:27;;;;;;;53.08;24.35;;;;;;;8.23;44.59;103397.22;4987370;28;96828;-77
2022/02/28 10:02:56;;;;;;;49.90;22.35;;;;;;;8.55;44.01;103391.59;4988116;28;97532;-78
2022/02/28 10:05:23;;;;;;;48.63;22.38;;;;;;;8.37;44.31;103393.09;4988262;28;101466;-79
2022/02/28 10:07:51;;;;;;;43.67;21.80;;;;;;;8.40;44.11;103394.91;4985434;28;100213;-76
2022/02/28 10:10:18;;;;;;;46.10;24.58;;;;;;;8.33;44.47;103406.22;4981896;28;97599;-77
2022/02/28 10:12:46;;;;;;;56.33;23.48;;;;;;;8.53;44.52;103398.63;4984990;28;98293;-76
2022/02/28 10:15:15;;;;;;;47.17;23.98;;;;;;;8.29;44.99;103401.69;4981043;28;99063;-76
2022/02/28 10:17:43;;;;;;;45.83;24.27;;;;;;;8.71;44.01;103393.59;4985034;28;98889;-77
2022/02/28 10:20:23;;;;;;;45.40;22.65;;;;;;;8.33;43.95;103396.56;4979093;28;98289;-77
2022/02/28 10:22:54;;;;;;;46.80;22.23;;;;;;;8.52;43.61;103394.19;4986776;28;96993;-77
2022/02/28 10:25:29;;;;;;;47.55;22.95;;;;;;;9.04;42.80;103388.78;4985105;28;99750;-78
2022/02/28 10:28:12;;;;;;;45.35;21.42;;;;;;;9.06;42.77;103391.41;4984325;28;101405;-78
2022/02/28 10:30:39;;;;;;;39.70;19.67;;;;;;;8.42;43.82;103390.53;4984329;28;97116;-76
2022/02/28 10:33:10;;;;;;;40.60;19.85;;;;;;;8.60;43.78;103384.66;4983967;28;97565;-75
2022/02/28 10:36:01;;;;;;;42.38;20.73;;;;;;;9.59;41.69;103377.09;4985635;28;99365;-75
2022/02/28 10:38:28;;;;;;;42.65;18.95;;;;;;;8.71;42.93;103380.41;4985503;28;99029;-76
2022/02/28 10:40:55;;;;;;;43.38;18.70;;;;;;;8.93;43.00;103374.56;4983803;28;96909;-76
2022/02/28 10:43:23;;;;;;;35.33;18.35;;;;;;;9.35;42.34;103373.31;4981688;28;97319;-76
2022/02/28 10:45:50;;;;;;;38.63;17.48;;;;;;;9.02;42.45;103381.69;4985278;28;99220;-76
2022/02/28 10:48:16;;;;;;;38.03;17.20;;;;;;;9.03;41.96;103376.47;4983024;28;97668;-78
2022/02/28 10:50:44;;;;;;;36.75;17.02;;;;;;;8.78;42.27;103377.91;4974173;28;99206;-77
2022/02/28 10:53:11;;;;;;;30.63;15.93;;;;;;;9.02;41.89;103372.03;4987833;28;96860;-76
2022/02/28 10:55:38;;;;;;;34.83;16.38;;;;;;;9.51;40.93;103373.50;4981435;28;102730;-75
2022/02/28 10:58:06;;;;;;;35.65;15.93;;;;;;;9.55;40.79;103370.00;4987202;28;98881;-76
2022/02/28 11:00:32;;;;;;;34.70;16.27;;;;;;;9.77;39.59;103363.19;4987654;28;98405;-77
2022/02/28 11:03:03;;;;;;;31.25;16.67;;;;;;;9.23;41.42;103368.78;4983457;28;96881;-77
2022/02/28 11:05:29;;;;;;;33.03;16.88;;;;;;;9.11;41.57;103358.09;4978653;28;100041;-76
2022/02/28 11:07:59;;;;;;;34.42;17.52;;;;;;;9.36;40.87;103364.53;4984312;28;98869;-76
2022/02/28 11:10:26;;;;;;;33.95;15.85;;;;;;;9.58;39.94;103366.53;4984209;28;97650;-75
2022/02/28 11:12:53;;;;;;;36.22;18.85;;;;;;;9.73;40.25;103363.13;4980564;28;96836;-75
2022/02/28 11:15:21;;;;;;;34.63;17.55;;;;;;;9.51;39.67;103357.66;4981712;28;99271;-75
2022/02/28 11:17:51;;;;;;;40.22;20.13;;;;;;;9.34;40.80;103363.63;4981259;28;98873;-75
2022/02/28 11:20:19;;;;;;;41.45;19.15;;;;;;;9.60;40.97;103354.22;4982606;28;96870;-76